createdAt,value
2017-06-03T00:01:09.507Z,19.90
2017-06-03T00:03:35.731Z,19.90
2017-06-03T00:06:02.679Z,19.90
2017-06-03T00:08:28.901Z,19.90
2017-06-03T00:10:55.876Z,19.80
2017-06-03T00:13:22.086Z,19.90
2017-06-03T00:15:48.330Z,19.80
2017-06-03T00:18:14.546Z,19.80
2017-06-03T00:20:40.789Z,19.80
2017-06-03T00:23:06.999Z,19.80
2017-06-03T00:25:33.241Z,19.80
2017-06-03T00:27:59.465Z,19.70
2017-06-03T00:30:25.699Z,19.70
2017-06-03T00:32:51.919Z,19.70
2017-06-03T00:35:18.160Z,19.70
2017-06-03T00:37:44.373Z,19.70
2017-06-03T00:40:10.641Z,19.70
2017-06-03T00:42:36.850Z,19.70
2017-06-03T00:45:03.098Z,19.70
2017-06-03T00:47:29.325Z,19.70
2017-06-03T00:49:55.566Z,19.70
2017-06-03T00:52:21.768Z,19.70
2017-06-03T00:54:47.995Z,19.60
2017-06-03T00:57:14.208Z,19.60
2017-06-03T00:59:40.426Z,19.60
2017-06-03T01:02:06.653Z,19.60
2017-06-03T01:04:32.866Z,19.60
2017-06-03T01:06:59.843Z,19.60
2017-06-03T01:09:26.068Z,19.60
2017-06-03T01:11:52.307Z,19.60
2017-06-03T01:14:18.509Z,19.60
2017-06-03T01:16:44.728Z,19.60
2017-06-03T01:19:10.924Z,19.60
2017-06-03T01:21:37.147Z,19.60
2017-06-03T01:24:03.345Z,19.60
2017-06-03T01:26:29.561Z,19.60
2017-06-03T01:28:55.770Z,19.60
2017-06-03T01:31:22.019Z,19.60
2017-06-03T01:33:48.237Z,19.60
2017-06-03T01:36:14.483Z,19.60
2017-06-03T01:38:40.688Z,19.60
2017-06-03T01:41:06.928Z,19.70
2017-06-03T01:43:33.181Z,19.70
2017-06-03T01:45:59.399Z,19.70
2017-06-03T01:48:25.642Z,19.70
2017-06-03T01:50:51.860Z,19.70
2017-06-03T01:53:18.092Z,19.70
2017-06-03T01:55:44.292Z,19.70
2017-06-03T01:58:10.504Z,19.70
2017-06-03T02:00:37.461Z,19.70
2017-06-03T02:03:03.683Z,19.60
2017-06-03T02:05:29.893Z,19.60
2017-06-03T02:07:56.117Z,19.60
2017-06-03T02:10:23.107Z,19.60
2017-06-03T02:12:49.350Z,19.60
2017-06-03T02:15:15.575Z,19.60
2017-06-03T02:17:41.799Z,19.50
2017-06-03T02:20:08.038Z,19.60
2017-06-03T02:22:34.269Z,19.50
2017-06-03T02:25:00.497Z,19.50
2017-06-03T02:27:26.709Z,19.50
2017-06-03T02:29:52.946Z,19.50
2017-06-03T02:32:19.152Z,19.50
2017-06-03T02:34:45.388Z,19.40
2017-06-03T02:37:11.619Z,19.40
2017-06-03T02:39:37.864Z,19.40
2017-06-03T02:42:04.101Z,19.40
2017-06-03T02:44:30.344Z,19.40
2017-06-03T02:46:56.576Z,19.40
2017-06-03T02:49:22.810Z,19.40
2017-06-03T02:51:49.188Z,19.40
2017-06-03T02:54:15.400Z,19.40
2017-06-03T02:56:41.641Z,19.30
2017-06-03T02:59:07.889Z,19.30
2017-06-03T03:01:34.158Z,19.30
2017-06-03T03:04:00.400Z,19.30
2017-06-03T03:06:27.385Z,19.20
2017-06-03T03:08:53.605Z,19.20
2017-06-03T03:11:19.870Z,19.20
2017-06-03T03:13:46.127Z,19.20
2017-06-03T03:16:13.106Z,19.10
2017-06-03T03:18:39.330Z,19.10
2017-06-03T03:21:05.594Z,19.10
2017-06-03T03:23:31.809Z,19.10
2017-06-03T03:25:58.028Z,19.10
2017-06-03T03:28:24.296Z,19.10
2017-06-03T03:30:50.517Z,19.10
2017-06-03T03:33:16.752Z,19.00
2017-06-03T03:35:42.965Z,19.00
2017-06-03T03:38:09.201Z,19.00
2017-06-03T03:40:35.448Z,19.00
2017-06-03T03:43:01.698Z,19.00
2017-06-03T03:45:28.658Z,19.00
2017-06-03T03:47:54.901Z,19.00
2017-06-03T03:50:21.115Z,19.00
2017-06-03T03:52:47.374Z,19.00
2017-06-03T03:55:14.362Z,19.00
2017-06-03T03:57:40.606Z,18.90
2017-06-03T04:00:06.827Z,19.00
2017-06-03T04:02:33.083Z,18.90
2017-06-03T04:04:59.299Z,18.90
2017-06-03T04:07:25.536Z,18.90
2017-06-03T04:09:51.850Z,18.90
2017-06-03T04:12:18.084Z,18.90
2017-06-03T04:14:44.308Z,18.90
2017-06-03T04:17:10.517Z,18.90
2017-06-03T04:19:36.736Z,18.90
2017-06-03T04:22:02.937Z,18.90
2017-06-03T04:24:29.906Z,18.90
2017-06-03T04:26:56.101Z,18.90
2017-06-03T04:29:23.057Z,18.90
2017-06-03T04:31:49.265Z,18.90
2017-06-03T04:34:16.255Z,18.90
2017-06-03T04:36:42.461Z,18.90
2017-06-03T04:39:08.657Z,19.00
2017-06-03T04:41:34.876Z,19.00
2017-06-03T04:44:01.082Z,19.00
2017-06-03T04:46:27.302Z,19.00
2017-06-03T04:48:53.499Z,19.00
2017-06-03T04:51:20.457Z,19.00
2017-06-03T04:53:46.654Z,19.00
2017-06-03T04:56:13.625Z,19.00
2017-06-03T04:58:39.826Z,19.10
2017-06-03T05:01:06.047Z,19.00
2017-06-03T05:03:32.253Z,19.10
2017-06-03T05:05:58.473Z,19.10
2017-06-03T05:08:24.669Z,19.10
2017-06-03T05:10:50.927Z,19.10
2017-06-03T05:13:17.141Z,19.10
2017-06-03T05:15:43.360Z,19.20
2017-06-03T05:18:09.599Z,19.20
2017-06-03T05:20:35.822Z,19.20
2017-06-03T05:23:02.048Z,19.20
2017-06-03T05:25:28.263Z,19.20
2017-06-03T05:27:54.499Z,19.20
2017-06-03T05:30:20.719Z,19.20
2017-06-03T05:32:46.953Z,19.30
2017-06-03T05:35:13.204Z,19.30
2017-06-03T05:37:39.461Z,19.30
2017-06-03T05:40:05.705Z,19.40
2017-06-03T05:42:31.998Z,19.40
2017-06-03T05:44:58.238Z,19.40
2017-06-03T05:47:24.453Z,19.40
2017-06-03T05:49:50.700Z,19.40
2017-06-03T05:52:16.907Z,19.50
2017-06-03T05:54:43.176Z,19.50
2017-06-03T05:57:09.385Z,19.50
2017-06-03T05:59:35.622Z,19.50
2017-06-03T06:02:01.847Z,19.50
2017-06-03T06:04:28.109Z,19.60
2017-06-03T06:06:54.328Z,19.60
2017-06-03T06:09:21.280Z,19.70
2017-06-03T06:11:48.312Z,19.70
2017-06-03T06:14:15.272Z,19.80
2017-06-03T06:16:42.252Z,19.80
2017-06-03T06:19:08.465Z,19.80
2017-06-03T06:21:34.724Z,19.90
2017-06-03T06:24:00.945Z,19.90
2017-06-03T06:26:27.184Z,20.00
2017-06-03T06:28:53.397Z,20.00
2017-06-03T06:31:19.639Z,20.10
2017-06-03T06:33:45.862Z,20.20
2017-06-03T06:36:12.077Z,20.20
2017-06-03T06:38:38.327Z,20.30
2017-06-03T06:41:04.540Z,20.30
2017-06-03T06:43:31.522Z,20.40
2017-06-03T06:46:04.636Z,20.40
2017-06-03T06:48:30.865Z,20.50
2017-06-03T06:50:57.077Z,20.60
2017-06-03T06:53:23.313Z,20.70
2017-06-03T06:55:49.538Z,20.80
2017-06-03T06:58:15.783Z,20.90
2017-06-03T07:00:41.988Z,20.90
2017-06-03T07:03:08.219Z,21.10
2017-06-03T07:05:34.452Z,21.20
2017-06-03T07:08:00.676Z,21.40
2017-06-03T07:10:26.924Z,21.50
2017-06-03T07:12:53.203Z,21.60
2017-06-03T07:15:19.436Z,21.70
2017-06-03T07:17:45.654Z,21.80
2017-06-03T07:20:12.632Z,22.00
2017-06-03T07:22:45.837Z,21.90
2017-06-03T07:25:12.077Z,22.00
2017-06-03T07:27:38.293Z,22.00
2017-06-03T07:30:04.514Z,22.10
2017-06-03T07:32:30.760Z,22.20
2017-06-03T07:34:56.979Z,22.30
2017-06-03T07:37:23.206Z,22.30
2017-06-03T07:39:49.413Z,22.40
2017-06-03T07:42:15.653Z,22.40
2017-06-03T07:44:41.879Z,22.50
2017-06-03T07:47:08.133Z,22.60
2017-06-03T07:49:34.345Z,22.60
2017-06-03T07:52:00.570Z,22.70
2017-06-03T07:54:26.799Z,22.80
2017-06-03T07:56:53.012Z,22.80
2017-06-03T07:59:19.247Z,22.90
2017-06-03T08:01:45.469Z,23.00
2017-06-03T08:04:11.702Z,23.00
2017-06-03T08:06:37.926Z,23.00
2017-06-03T08:09:04.204Z,23.10
2017-06-03T08:11:30.425Z,23.10
2017-06-03T08:13:56.653Z,23.20
2017-06-03T08:16:22.851Z,23.30
2017-06-03T08:18:49.070Z,23.30
2017-06-03T08:21:15.298Z,23.40
2017-06-03T08:23:41.503Z,23.50
2017-06-03T08:26:07.728Z,23.50
2017-06-03T08:28:33.929Z,23.60
2017-06-03T08:31:00.154Z,23.60
2017-06-03T08:33:26.361Z,23.70
2017-06-03T08:35:52.578Z,23.70
2017-06-03T08:38:18.790Z,23.80
2017-06-03T08:40:45.022Z,23.90
2017-06-03T08:43:11.214Z,24.00
2017-06-03T08:45:38.199Z,24.10
2017-06-03T08:48:04.407Z,24.10
2017-06-03T08:50:30.615Z,24.10
2017-06-03T08:52:57.570Z,24.30
2017-06-03T08:55:24.525Z,24.30
2017-06-03T08:57:50.749Z,24.30
2017-06-03T09:00:16.963Z,24.40
2017-06-03T09:02:43.922Z,24.60
2017-06-03T09:05:10.130Z,24.50
2017-06-03T09:07:37.123Z,24.70
2017-06-03T09:10:03.392Z,24.70
2017-06-03T09:12:29.653Z,24.70
2017-06-03T09:14:55.862Z,24.80
2017-06-03T09:17:22.854Z,24.90
2017-06-03T09:19:49.083Z,24.90
2017-06-03T09:22:15.349Z,25.00
2017-06-03T09:24:41.570Z,25.00
2017-06-03T09:27:07.794Z,25.10
2017-06-03T09:29:34.036Z,25.20
2017-06-03T09:32:00.257Z,25.30
2017-06-03T09:34:26.491Z,25.30
2017-06-03T09:36:52.706Z,25.30
2017-06-03T09:39:18.934Z,25.30
2017-06-03T09:41:45.157Z,25.30
2017-06-03T09:44:11.389Z,25.20
2017-06-03T09:46:37.604Z,25.20
2017-06-03T09:49:03.847Z,25.10
2017-06-03T09:51:30.062Z,25.00
2017-06-03T09:53:56.319Z,24.90
2017-06-03T09:56:22.531Z,24.80
2017-06-03T09:58:48.732Z,24.70
2017-06-03T10:01:14.982Z,24.60
2017-06-03T10:03:41.200Z,24.50
2017-06-03T10:06:07.451Z,24.40
2017-06-03T10:08:40.582Z,24.30
2017-06-03T10:11:06.841Z,24.20
2017-06-03T10:13:33.062Z,24.20
2017-06-03T10:15:59.293Z,24.10
2017-06-03T10:18:25.513Z,24.00
2017-06-03T10:20:51.748Z,23.90
2017-06-03T10:23:17.948Z,23.90
2017-06-03T10:25:44.167Z,23.80
2017-06-03T10:28:11.119Z,23.60
2017-06-03T10:30:38.068Z,23.50
2017-06-03T10:33:04.292Z,23.50
2017-06-03T10:35:31.233Z,23.30
2017-06-03T10:37:58.197Z,23.30
2017-06-03T10:40:24.391Z,23.30
2017-06-03T10:42:50.620Z,23.20
2017-06-03T10:45:17.559Z,23.20
2017-06-03T10:47:43.773Z,23.20
2017-06-03T10:50:09.978Z,23.20
2017-06-03T10:52:36.209Z,23.20
2017-06-03T10:55:02.411Z,23.20
2017-06-03T10:57:28.628Z,23.30
2017-06-03T10:59:54.828Z,23.30
2017-06-03T11:02:21.039Z,23.40
2017-06-03T11:04:47.267Z,23.50
2017-06-03T11:07:13.470Z,23.60
2017-06-03T11:09:39.694Z,23.70
2017-06-03T11:12:05.917Z,23.80
2017-06-03T11:14:32.155Z,23.90
2017-06-03T11:16:58.371Z,24.00
2017-06-03T11:19:24.597Z,24.10
2017-06-03T11:21:50.795Z,24.30
2017-06-03T11:24:17.764Z,24.50
2017-06-03T11:26:43.968Z,24.50
2017-06-03T11:29:10.954Z,24.80
2017-06-03T11:31:37.154Z,24.70
2017-06-03T11:34:03.356Z,24.80
2017-06-03T11:36:29.573Z,24.90
2017-06-03T11:38:55.783Z,25.00
2017-06-03T11:41:22.008Z,25.10
2017-06-03T11:43:48.219Z,25.20
2017-06-03T11:46:14.429Z,25.30
2017-06-03T11:48:40.638Z,25.40
2017-06-03T11:51:07.620Z,25.60
2017-06-03T11:53:33.829Z,25.50
2017-06-03T11:56:00.070Z,25.60
2017-06-03T11:58:26.270Z,25.70
2017-06-03T12:00:53.243Z,25.80
2017-06-03T12:03:19.466Z,25.80
2017-06-03T12:05:45.727Z,25.90
2017-06-03T12:08:11.930Z,25.90
2017-06-03T12:10:38.188Z,26.00
2017-06-03T12:13:04.406Z,26.00
2017-06-03T12:15:30.626Z,26.00
2017-06-03T12:17:56.862Z,26.10
2017-06-03T12:20:23.085Z,26.10
2017-06-03T12:22:49.319Z,26.10
2017-06-03T12:25:15.549Z,26.20
2017-06-03T12:27:41.792Z,26.10
2017-06-03T12:30:08.008Z,26.20
2017-06-03T12:32:34.247Z,26.20
2017-06-03T12:35:00.475Z,26.20
2017-06-03T12:37:26.719Z,26.20
2017-06-03T12:39:52.936Z,26.10
2017-06-03T12:42:19.174Z,26.10
2017-06-03T12:44:45.393Z,26.20
2017-06-03T12:47:11.641Z,26.10
2017-06-03T12:49:38.594Z,26.10
2017-06-03T12:52:04.858Z,26.10
2017-06-03T12:54:31.087Z,26.10
2017-06-03T12:56:57.313Z,26.10
2017-06-03T12:59:23.553Z,26.10
2017-06-03T13:01:49.785Z,26.00
2017-06-03T13:04:16.029Z,26.10
2017-06-03T13:06:42.239Z,26.00
2017-06-03T13:09:08.487Z,26.00
2017-06-03T13:11:34.734Z,26.00
2017-06-03T13:14:00.949Z,26.10
2017-06-03T13:16:27.174Z,26.10
2017-06-03T13:18:53.415Z,26.10
2017-06-03T13:21:19.616Z,26.00
2017-06-03T13:23:45.861Z,26.10
2017-06-03T13:26:12.067Z,26.00
2017-06-03T13:28:38.255Z,26.00
2017-06-03T13:31:04.464Z,26.00
2017-06-03T13:33:31.417Z,25.90
2017-06-03T13:35:58.381Z,25.90
2017-06-03T13:38:24.582Z,25.90
2017-06-03T13:40:51.544Z,25.90
2017-06-03T13:43:18.499Z,25.90
2017-06-03T13:45:44.732Z,25.80
2017-06-03T13:48:10.938Z,25.80
2017-06-03T13:50:37.909Z,25.70
2017-06-03T13:53:04.112Z,25.70
2017-06-03T13:55:31.081Z,25.70
2017-06-03T13:57:57.278Z,25.70
2017-06-03T14:00:24.241Z,25.70
2017-06-03T14:02:50.445Z,25.60
2017-06-03T14:05:16.651Z,25.60
2017-06-03T14:07:42.873Z,25.60
2017-06-03T14:10:09.092Z,25.50
2017-06-03T14:12:35.340Z,25.50
2017-06-03T14:15:01.551Z,25.50
2017-06-03T14:17:27.787Z,25.40
2017-06-03T14:19:54.001Z,25.40
2017-06-03T14:22:20.245Z,25.40
2017-06-03T14:24:46.474Z,25.30
2017-06-03T14:27:12.717Z,25.30
2017-06-03T14:29:38.940Z,25.30
2017-06-03T14:32:05.168Z,25.20
2017-06-03T14:34:31.385Z,25.20
2017-06-03T14:36:57.632Z,25.20
2017-06-03T14:39:23.839Z,25.30
2017-06-03T14:41:50.055Z,25.20
2017-06-03T14:44:16.296Z,25.20
2017-06-03T14:46:42.520Z,25.20
2017-06-03T14:49:08.765Z,25.20
2017-06-03T14:51:34.981Z,25.20
2017-06-03T14:54:01.216Z,25.10
2017-06-03T14:56:27.430Z,25.10
2017-06-03T14:58:53.675Z,25.10
2017-06-03T15:01:19.891Z,25.10
2017-06-03T15:03:46.136Z,25.10
2017-06-03T15:06:12.358Z,25.10
2017-06-03T15:08:38.581Z,25.00
2017-06-03T15:11:04.829Z,25.00
2017-06-03T15:13:31.030Z,25.00
2017-06-03T15:15:57.257Z,24.90
2017-06-03T15:18:23.459Z,24.90
2017-06-03T15:20:49.673Z,24.90
2017-06-03T15:23:15.885Z,24.90
2017-06-03T15:25:42.841Z,24.80
2017-06-03T15:28:09.790Z,24.80
2017-06-03T15:30:36.024Z,24.80
2017-06-03T15:33:02.229Z,24.80
2017-06-03T15:35:29.190Z,24.70
2017-06-03T15:37:55.392Z,24.70
2017-06-03T15:40:21.618Z,24.70
2017-06-03T15:42:47.825Z,24.60
2017-06-03T15:45:14.078Z,24.60
2017-06-03T15:47:40.268Z,24.60
2017-06-03T15:50:06.478Z,24.60
2017-06-03T15:52:32.719Z,24.50
2017-06-03T15:54:58.955Z,24.50
2017-06-03T15:57:25.221Z,24.40
2017-06-03T15:59:51.424Z,24.40
2017-06-03T16:02:17.656Z,24.30
2017-06-03T16:04:43.858Z,24.30
2017-06-03T16:07:10.079Z,24.20
2017-06-03T16:09:36.281Z,24.20
2017-06-03T16:12:03.286Z,24.10
2017-06-03T16:14:29.505Z,24.10
2017-06-03T16:16:55.774Z,24.00
2017-06-03T16:19:22.725Z,24.00
2017-06-03T16:21:49.717Z,24.00
2017-06-03T16:24:15.956Z,24.00
2017-06-03T16:26:42.173Z,23.90
2017-06-03T16:29:08.417Z,23.90
2017-06-03T16:31:34.642Z,23.90
2017-06-03T16:34:00.872Z,23.90
2017-06-03T16:36:27.092Z,23.80
2017-06-03T16:38:53.330Z,23.80
2017-06-03T16:41:19.544Z,23.80
2017-06-03T16:43:45.782Z,23.70
2017-06-03T16:46:11.999Z,23.70
2017-06-03T16:48:38.223Z,23.60
2017-06-03T16:51:04.462Z,23.60
2017-06-03T16:53:30.682Z,23.60
2017-06-03T16:55:56.925Z,23.50
2017-06-03T16:58:23.142Z,23.50
2017-06-03T17:00:49.386Z,23.50
2017-06-03T17:03:15.600Z,23.40
2017-06-03T17:05:41.846Z,23.40
2017-06-03T17:08:08.064Z,23.40
2017-06-03T17:10:34.317Z,23.40
2017-06-03T17:13:00.545Z,23.40
2017-06-03T17:15:26.758Z,23.40
2017-06-03T17:17:53.000Z,23.30
2017-06-03T17:20:19.216Z,23.30
2017-06-03T17:22:45.466Z,23.30
2017-06-03T17:25:12.424Z,23.30
2017-06-03T17:27:39.402Z,23.30
2017-06-03T17:30:05.627Z,23.20
2017-06-03T17:32:31.852Z,23.20
2017-06-03T17:34:58.082Z,23.20
2017-06-03T17:37:24.354Z,23.20
2017-06-03T17:39:50.578Z,23.20
2017-06-03T17:42:16.849Z,23.20
2017-06-03T17:44:43.081Z,23.20
2017-06-03T17:47:09.330Z,23.20
2017-06-03T17:49:35.561Z,23.20
2017-06-03T17:52:01.781Z,23.20
2017-06-03T17:54:28.810Z,23.10
2017-06-03T17:56:55.030Z,23.10
2017-06-03T17:59:22.018Z,23.10
2017-06-03T18:01:48.236Z,23.10
2017-06-03T18:04:14.470Z,23.10
2017-06-03T18:06:40.680Z,23.00
2017-06-03T18:09:06.922Z,23.00
2017-06-03T18:11:33.163Z,23.00
2017-06-03T18:13:59.398Z,22.90
2017-06-03T18:16:25.619Z,22.90
2017-06-03T18:18:51.870Z,22.80
2017-06-03T18:21:18.117Z,22.80
2017-06-03T18:23:47.116Z,22.70
2017-06-03T18:26:14.146Z,22.60
2017-06-03T18:28:40.389Z,22.60
2017-06-03T18:31:07.347Z,22.60
2017-06-03T18:33:34.335Z,22.50
2017-06-03T18:36:00.546Z,22.50
2017-06-03T18:38:26.767Z,22.40
2017-06-03T18:40:53.005Z,22.40
2017-06-03T18:43:19.634Z,22.30
2017-06-03T18:45:45.874Z,22.30
2017-06-03T18:48:12.082Z,22.20
2017-06-03T18:50:38.317Z,22.10
2017-06-03T18:53:04.537Z,22.10
2017-06-03T18:55:30.766Z,22.00
2017-06-03T18:57:56.990Z,22.00
2017-06-03T19:00:23.263Z,22.00
2017-06-03T19:02:49.477Z,21.90
2017-06-03T19:05:15.716Z,21.90
2017-06-03T19:07:41.932Z,21.80
2017-06-03T19:10:08.150Z,21.80
2017-06-03T19:12:34.408Z,21.80
2017-06-03T19:15:00.623Z,21.70
2017-06-03T19:17:26.860Z,21.70
2017-06-03T19:19:53.081Z,21.70
2017-06-03T19:22:19.316Z,21.70
2017-06-03T19:24:45.531Z,21.70
2017-06-03T19:27:11.781Z,21.70
2017-06-03T19:29:37.998Z,21.60
2017-06-03T19:32:04.233Z,21.60
2017-06-03T19:34:30.443Z,21.60
2017-06-03T19:36:56.687Z,21.60
2017-06-03T19:39:22.906Z,21.60
2017-06-03T19:41:49.139Z,21.60
2017-06-03T19:44:15.522Z,21.60
2017-06-03T19:46:42.495Z,21.60
2017-06-03T19:49:08.732Z,21.50
2017-06-03T19:51:34.953Z,21.50
2017-06-03T19:54:01.191Z,21.50
2017-06-03T19:56:27.410Z,21.50
2017-06-03T19:58:53.651Z,21.50
2017-06-03T20:01:19.862Z,21.50
2017-06-03T20:03:46.102Z,21.50
2017-06-03T20:06:12.322Z,21.50
2017-06-03T20:08:38.543Z,21.50
2017-06-03T20:11:04.810Z,21.40
2017-06-03T20:13:31.014Z,21.40
2017-06-03T20:15:57.249Z,21.40
2017-06-03T20:18:23.467Z,21.40
2017-06-03T20:20:49.707Z,21.40
2017-06-03T20:23:15.927Z,21.40
2017-06-03T20:25:42.182Z,21.40
2017-06-03T20:28:08.397Z,21.40
2017-06-03T20:30:34.636Z,21.30
2017-06-03T20:33:00.860Z,21.30
2017-06-03T20:35:27.144Z,21.30
2017-06-03T20:37:53.361Z,21.30
2017-06-03T20:40:20.311Z,21.20
2017-06-03T20:42:47.294Z,21.20
2017-06-03T20:45:13.516Z,21.20
2017-06-03T20:47:39.753Z,21.20
2017-06-03T20:50:05.971Z,21.20
2017-06-03T20:52:32.203Z,21.20
2017-06-03T20:54:58.436Z,21.20
2017-06-03T20:57:24.684Z,21.20
2017-06-03T20:59:50.926Z,21.20
2017-06-03T21:02:17.160Z,21.20
2017-06-03T21:04:43.358Z,21.20
2017-06-03T21:07:09.569Z,21.10
2017-06-03T21:09:35.795Z,21.10
2017-06-03T21:12:02.013Z,21.10
2017-06-03T21:14:28.222Z,21.10
2017-06-03T21:16:54.457Z,21.10
2017-06-03T21:19:20.677Z,21.10
2017-06-03T21:21:46.876Z,21.10
2017-06-03T21:24:13.099Z,21.00
2017-06-03T21:26:39.295Z,21.00
2017-06-03T21:29:05.498Z,21.00
2017-06-03T21:31:31.721Z,21.10
2017-06-03T21:33:57.923Z,21.10
2017-06-03T21:36:24.894Z,21.10
2017-06-03T21:38:51.102Z,21.00
2017-06-03T21:41:18.073Z,21.00
2017-06-03T21:43:44.291Z,21.00
2017-06-03T21:46:10.509Z,21.00
2017-06-03T21:48:37.453Z,21.00
2017-06-03T21:51:04.418Z,21.10
2017-06-03T21:53:30.617Z,21.00
2017-06-03T21:55:57.588Z,21.00
2017-06-03T21:58:23.783Z,21.00
2017-06-03T22:00:50.723Z,21.00
2017-06-03T22:03:16.952Z,20.90
2017-06-03T22:05:43.164Z,20.90
2017-06-03T22:08:09.382Z,20.90
2017-06-03T22:10:35.587Z,20.90
2017-06-03T22:13:01.854Z,20.90
2017-06-03T22:15:28.068Z,20.90
2017-06-03T22:17:54.300Z,20.90
2017-06-03T22:20:20.522Z,20.80
2017-06-03T22:22:46.758Z,20.80
2017-06-03T22:25:12.969Z,20.70
2017-06-03T22:27:39.205Z,20.70
2017-06-03T22:30:05.434Z,20.70
2017-06-03T22:32:31.646Z,20.60
2017-06-03T22:34:57.876Z,20.60
2017-06-03T22:37:24.098Z,20.50
2017-06-03T22:39:50.346Z,20.50
2017-06-03T22:42:16.566Z,20.50
2017-06-03T22:44:42.809Z,20.50
2017-06-03T22:47:09.021Z,20.50
2017-06-03T22:49:35.260Z,20.40
2017-06-03T22:52:01.474Z,20.40
2017-06-03T22:54:27.715Z,20.40
2017-06-03T22:56:53.925Z,20.40
2017-06-03T22:59:20.151Z,20.40
2017-06-03T23:01:46.393Z,20.30
2017-06-03T23:04:12.592Z,20.30
2017-06-03T23:06:38.835Z,20.30
2017-06-03T23:09:05.056Z,20.30
2017-06-03T23:11:31.312Z,20.30
2017-06-03T23:13:57.529Z,20.30
2017-06-03T23:16:23.777Z,20.30
2017-06-03T23:18:49.983Z,20.30
2017-06-03T23:21:16.213Z,20.30
2017-06-03T23:23:42.430Z,20.20
2017-06-03T23:26:08.645Z,20.20
2017-06-03T23:28:34.891Z,20.20
2017-06-03T23:31:01.102Z,20.20
2017-06-03T23:33:27.333Z,20.20
2017-06-03T23:35:53.555Z,20.20
2017-06-03T23:38:19.798Z,20.20
2017-06-03T23:40:46.011Z,20.20
2017-06-03T23:43:12.257Z,20.20
2017-06-03T23:45:38.473Z,20.20
2017-06-03T23:48:04.689Z,20.20
2017-06-03T23:50:30.929Z,20.20
2017-06-03T23:52:57.149Z,20.10
2017-06-03T23:55:23.383Z,20.10
2017-06-03T23:57:49.603Z,20.10
